createdAt,value
2018-09-30T00:00:34.098Z,100855.56
2018-09-30T00:03:03.120Z,100855.48
2018-09-30T00:05:32.109Z,100855.34
2018-09-30T00:08:01.123Z,100858.52
2018-09-30T00:10:30.159Z,100852.62
2018-09-30T00:12:59.209Z,100847.45
2018-09-30T00:15:28.391Z,100848.95
2018-09-30T00:17:57.444Z,100850.48
2018-09-30T00:20:26.449Z,100849.23
2018-09-30T00:22:55.505Z,100850.56
2018-09-30T00:26:33.805Z,100843.25
2018-09-30T00:29:02.866Z,100841.56
2018-09-30T00:31:31.881Z,100841.38
2018-09-30T00:34:06.269Z,100836.23
2018-09-30T00:36:35.369Z,100832.11
2018-09-30T00:39:05.875Z,100833.70
2018-09-30T00:41:34.947Z,100832.47
2018-09-30T00:44:04.143Z,100832.19
2018-09-30T00:46:33.153Z,100830.77
2018-09-30T00:49:02.494Z,100824.45
2018-09-30T00:51:31.507Z,100830.78
2018-09-30T00:54:00.531Z,100827.38
2018-09-30T00:56:29.575Z,100821.89
2018-09-30T00:58:58.623Z,100815.27
2018-09-30T01:01:27.602Z,100814.52
2018-09-30T01:03:56.620Z,100813.02
2018-09-30T01:06:25.688Z,100807.70
2018-09-30T01:08:54.705Z,100809.63
2018-09-30T01:11:23.695Z,100806.54
2018-09-30T01:13:52.678Z,100798.84
2018-09-30T01:16:21.640Z,100795.52
2018-09-30T01:18:50.664Z,100804.06
2018-09-30T01:21:19.648Z,100801.34
2018-09-30T01:23:48.640Z,100797.56
2018-09-30T01:26:17.624Z,100804.23
2018-09-30T01:28:46.608Z,100803.15
2018-09-30T01:31:15.616Z,100796.85
2018-09-30T01:33:44.709Z,100798.73
2018-09-30T01:36:13.738Z,100796.28
2018-09-30T01:38:42.787Z,100790.34
2018-09-30T01:41:11.806Z,100790.23
2018-09-30T01:43:40.812Z,100791.78
2018-09-30T01:46:09.877Z,100786.85
2018-09-30T01:48:38.908Z,100779.42
2018-09-30T01:51:07.924Z,100776.61
2018-09-30T01:53:37.104Z,100769.35
2018-09-30T01:56:06.145Z,100771.31
2018-09-30T01:58:35.194Z,100775.25
2018-09-30T02:01:04.190Z,100772.23
2018-09-30T02:03:33.281Z,100772.87
2018-09-30T02:06:02.533Z,100774.60
2018-09-30T02:08:31.555Z,100765.65
2018-09-30T02:11:00.563Z,100765.05
2018-09-30T02:13:29.598Z,100767.26
2018-09-30T02:15:58.818Z,100763.23
2018-09-30T02:18:27.868Z,100768.25
2018-09-30T02:20:57.017Z,100762.28
2018-09-30T02:23:26.145Z,100754.29
2018-09-30T02:25:55.141Z,100756.85
2018-09-30T02:28:24.147Z,100746.03
2018-09-30T02:30:53.113Z,100743.94
2018-09-30T02:33:22.080Z,100744.00
2018-09-30T02:35:51.117Z,100745.44
2018-09-30T02:38:20.793Z,100749.23
2018-09-30T02:40:49.939Z,100745.14
2018-09-30T02:43:19.116Z,100741.97
2018-09-30T02:45:48.182Z,100735.70
2018-09-30T02:48:17.192Z,100735.97
2018-09-30T02:50:46.260Z,100733.09
2018-09-30T02:53:15.314Z,100731.25
2018-09-30T02:55:44.451Z,100730.67
2018-09-30T02:58:13.488Z,100732.17
2018-09-30T03:00:42.474Z,100728.92
2018-09-30T03:03:11.485Z,100730.77
2018-09-30T03:05:40.470Z,100726.79
2018-09-30T03:08:14.985Z,100725.23
2018-09-30T03:10:44.026Z,100728.75
2018-09-30T03:13:13.099Z,100723.66
2018-09-30T03:15:42.107Z,100717.56
2018-09-30T03:18:11.098Z,100714.43
2018-09-30T03:20:40.088Z,100719.52
2018-09-30T03:23:09.042Z,100717.71
2018-09-30T03:25:38.150Z,100715.14
2018-09-30T03:28:07.182Z,100715.30
2018-09-30T03:30:36.262Z,100705.95
2018-09-30T03:33:05.297Z,100706.48
2018-09-30T03:35:34.460Z,100709.73
2018-09-30T03:38:03.503Z,100702.40
2018-09-30T03:40:32.585Z,100699.70
2018-09-30T03:43:01.726Z,100698.30
2018-09-30T03:45:30.766Z,100689.41
2018-09-30T03:47:59.796Z,100691.51
2018-09-30T03:50:28.820Z,100688.39
2018-09-30T03:52:57.835Z,100685.48
2018-09-30T03:55:26.818Z,100688.20
2018-09-30T03:57:55.786Z,100688.81
2018-09-30T04:00:24.827Z,100688.48
2018-09-30T04:02:53.892Z,100680.80
2018-09-30T04:05:22.928Z,100667.42
2018-09-30T04:07:51.964Z,100674.39
2018-09-30T04:10:20.982Z,100664.33
2018-09-30T04:12:49.991Z,100661.00
2018-09-30T04:15:19.127Z,100666.52
2018-09-30T04:17:49.757Z,100662.55
2018-09-30T04:20:18.859Z,100659.10
2018-09-30T04:22:47.877Z,100659.45
2018-09-30T04:25:16.971Z,100660.77
2018-09-30T04:27:46.076Z,100662.73
2018-09-30T04:30:15.094Z,100654.93
2018-09-30T04:32:44.083Z,100655.85
2018-09-30T04:35:13.101Z,100655.39
2018-09-30T04:37:42.202Z,100655.28
2018-09-30T04:40:11.548Z,100657.35
2018-09-30T04:42:40.584Z,100656.03
2018-09-30T04:45:09.574Z,100657.03
2018-09-30T04:47:38.526Z,100649.82
2018-09-30T04:50:07.563Z,100644.96
2018-09-30T04:52:36.677Z,100647.41
2018-09-30T04:55:05.751Z,100651.05
2018-09-30T04:57:34.770Z,100649.84
2018-09-30T05:00:03.840Z,100645.80
2018-09-30T05:02:32.841Z,100644.02
2018-09-30T05:05:01.918Z,100641.02
2018-09-30T05:07:30.929Z,100644.38
2018-09-30T05:10:00.202Z,100638.61
2018-09-30T05:12:29.205Z,100635.30
2018-09-30T05:14:58.339Z,100639.32
2018-09-30T05:17:27.245Z,100635.88
2018-09-30T05:19:56.787Z,100635.44
2018-09-30T05:22:25.832Z,100630.00
2018-09-30T05:24:54.919Z,100624.63
2018-09-30T05:27:23.912Z,100627.31
2018-09-30T05:29:53.072Z,100628.20
2018-09-30T05:32:22.091Z,100630.69
2018-09-30T05:34:51.038Z,100632.69
2018-09-30T05:37:20.148Z,100627.77
2018-09-30T05:39:49.596Z,100631.69
2018-09-30T05:42:18.689Z,100629.59
2018-09-30T05:44:48.168Z,100630.02
2018-09-30T05:47:17.181Z,100638.54
2018-09-30T05:49:46.260Z,100628.36
2018-09-30T05:52:15.378Z,100629.69
2018-09-30T05:54:44.344Z,100626.95
2018-09-30T05:57:13.382Z,100628.24
2018-09-30T05:59:42.370Z,100630.47
2018-09-30T06:02:11.415Z,100621.23
2018-09-30T06:04:40.721Z,100622.38
2018-09-30T06:07:09.728Z,100628.71
2018-09-30T06:09:38.699Z,100623.37
2018-09-30T06:12:07.848Z,100629.09
2018-09-30T06:14:37.214Z,100622.09
2018-09-30T06:17:06.437Z,100615.66
2018-09-30T06:19:35.427Z,100616.83
2018-09-30T06:22:04.418Z,100608.80
2018-09-30T06:24:33.502Z,100607.66
2018-09-30T06:27:02.546Z,100598.88
2018-09-30T06:29:31.627Z,100599.27
2018-09-30T06:32:00.687Z,100602.73
2018-09-30T06:34:29.842Z,100606.22
2018-09-30T06:36:58.878Z,100604.34
2018-09-30T06:39:27.856Z,100601.91
2018-09-30T06:41:56.862Z,100596.28
2018-09-30T06:44:25.865Z,100591.51
2018-09-30T06:46:54.844Z,100583.13
2018-09-30T06:49:24.086Z,100580.80
2018-09-30T06:51:53.096Z,100587.85
2018-09-30T06:54:22.156Z,100586.73
2018-09-30T06:56:51.202Z,100585.60
2018-09-30T06:59:20.226Z,100585.47
2018-09-30T07:01:49.214Z,100581.80
2018-09-30T07:04:18.209Z,100584.31
2018-09-30T07:06:47.208Z,100589.47
2018-09-30T07:09:16.289Z,100585.46
2018-09-30T07:11:45.354Z,100582.64
2018-09-30T07:14:14.419Z,100583.79
2018-09-30T07:16:43.475Z,100578.96
2018-09-30T07:19:12.790Z,100572.51
2018-09-30T07:21:41.806Z,100574.17
2018-09-30T07:24:10.771Z,100574.70
2018-09-30T07:26:39.819Z,100583.95
2018-09-30T07:29:08.785Z,100569.30
2018-09-30T07:31:37.903Z,100576.41
2018-09-30T07:34:06.849Z,100574.09
2018-09-30T07:36:35.867Z,100576.17
2018-09-30T07:39:07.104Z,100575.73
2018-09-30T07:41:36.179Z,100571.44
2018-09-30T07:44:05.288Z,100563.91
2018-09-30T07:46:34.428Z,100567.22
2018-09-30T07:49:03.431Z,100565.34
2018-09-30T07:51:32.451Z,100568.22
2018-09-30T07:54:01.916Z,100567.91
2018-09-30T07:56:30.928Z,100559.26
2018-09-30T07:58:59.855Z,100561.39
2018-09-30T08:01:31.218Z,100554.07
2018-09-30T08:04:00.279Z,100557.30
2018-09-30T08:06:30.568Z,100552.95
2018-09-30T08:08:59.839Z,100545.47
2018-09-30T08:11:29.220Z,100545.04
2018-09-30T08:13:58.309Z,100546.58
2018-09-30T08:16:27.480Z,100541.77
2018-09-30T08:18:56.781Z,100528.77
2018-09-30T08:21:25.726Z,100533.27
2018-09-30T08:23:54.782Z,100532.34
2018-09-30T08:26:23.797Z,100530.09
2018-09-30T08:28:52.869Z,100522.30
2018-09-30T08:31:21.855Z,100521.97
2018-09-30T08:33:50.793Z,100519.59
2018-09-30T08:36:19.883Z,100522.00
2018-09-30T08:38:48.929Z,100512.98
2018-09-30T08:41:17.897Z,100518.53
2018-09-30T08:43:46.992Z,100510.80
2018-09-30T08:46:16.045Z,100501.63
2018-09-30T08:48:45.109Z,100502.26
2018-09-30T08:51:14.135Z,100508.69
2018-09-30T08:53:43.904Z,100504.30
2018-09-30T08:56:13.244Z,100506.52
2018-09-30T08:58:42.096Z,100504.72
2018-09-30T09:01:11.097Z,100507.68
2018-09-30T09:03:40.171Z,100502.88
2018-09-30T09:06:09.206Z,100498.83
2018-09-30T09:08:38.296Z,100489.53
2018-09-30T09:11:09.384Z,100480.88
2018-09-30T09:13:38.482Z,100481.00
2018-09-30T09:16:07.491Z,100475.95
2018-09-30T09:18:36.502Z,100466.66
2018-09-30T09:21:05.577Z,100473.07
2018-09-30T09:23:34.819Z,100470.50
2018-09-30T09:26:03.993Z,100466.53
2018-09-30T09:28:33.016Z,100455.03
2018-09-30T09:31:01.997Z,100453.62
2018-09-30T09:33:31.232Z,100438.13
2018-09-30T09:36:00.303Z,100444.16
2018-09-30T09:38:30.387Z,100439.23
2018-09-30T09:40:59.402Z,100429.09
2018-09-30T09:43:28.389Z,100431.94
2018-09-30T09:45:57.415Z,100436.44
2018-09-30T09:48:26.530Z,100436.48
2018-09-30T09:50:56.528Z,100428.75
2018-09-30T09:53:25.573Z,100420.52
2018-09-30T09:55:54.752Z,100426.09
2018-09-30T09:58:23.810Z,100425.62
2018-09-30T10:00:52.781Z,100419.72
2018-09-30T10:03:21.773Z,100420.20
2018-09-30T10:05:50.795Z,100413.27
2018-09-30T10:08:19.879Z,100411.55
2018-09-30T10:10:48.903Z,100405.77
2018-09-30T10:13:18.057Z,100406.04
2018-09-30T10:15:47.055Z,100401.61
2018-09-30T10:18:16.102Z,100394.45
2018-09-30T10:20:45.281Z,100392.47
2018-09-30T10:23:14.399Z,100386.00
2018-09-30T10:25:44.455Z,100378.59
2018-09-30T10:28:13.531Z,100370.25
2018-09-30T10:30:42.689Z,100372.48
2018-09-30T10:33:11.711Z,100367.45
2018-09-30T10:35:40.950Z,100357.00
2018-09-30T10:38:10.232Z,100353.25
2018-09-30T10:40:39.171Z,100337.31
2018-09-30T10:43:09.676Z,100331.52
2018-09-30T10:45:38.718Z,100330.22
2018-09-30T10:48:08.104Z,100317.30
2018-09-30T10:50:37.152Z,100318.89
2018-09-30T10:53:06.290Z,100305.77
2018-09-30T10:55:35.290Z,100295.31
2018-09-30T10:58:04.886Z,100290.34
2018-09-30T11:00:33.981Z,100294.22
2018-09-30T11:03:03.065Z,100283.61
2018-09-30T11:05:32.177Z,100266.13
2018-09-30T11:08:01.167Z,100265.22
2018-09-30T11:10:30.186Z,100253.81
2018-09-30T11:12:59.233Z,100263.44
2018-09-30T11:15:28.258Z,100250.48
2018-09-30T11:17:57.340Z,100245.95
2018-09-30T11:20:26.353Z,100236.68
2018-09-30T11:22:55.445Z,100236.89
2018-09-30T11:25:24.463Z,100231.17
2018-09-30T11:27:53.539Z,100226.75
2018-09-30T11:30:22.641Z,100241.11
2018-09-30T11:32:51.759Z,100220.48
2018-09-30T11:35:20.826Z,100213.61
2018-09-30T11:37:49.892Z,100200.91
2018-09-30T11:40:18.914Z,100205.59
2018-09-30T11:42:48.010Z,100203.02
2018-09-30T11:45:16.982Z,100188.90
2018-09-30T11:47:46.022Z,100187.96
2018-09-30T11:50:15.219Z,100184.17
2018-09-30T11:52:44.361Z,100180.40
2018-09-30T11:55:14.526Z,100169.97
2018-09-30T11:57:43.560Z,100165.85
2018-09-30T12:00:12.660Z,100159.19
2018-09-30T12:02:41.665Z,100155.69
2018-09-30T12:05:10.743Z,100144.90
2018-09-30T12:07:39.759Z,100136.61
2018-09-30T12:10:08.806Z,100135.96
2018-09-30T12:12:37.933Z,100130.09
2018-09-30T12:15:06.972Z,100123.18
2018-09-30T12:17:35.946Z,100101.52
2018-09-30T12:20:05.027Z,100103.19
2018-09-30T12:22:34.110Z,100103.62
2018-09-30T12:25:03.164Z,100097.14
2018-09-30T12:27:32.144Z,100108.05
2018-09-30T12:30:01.159Z,100090.77
2018-09-30T12:32:30.332Z,100095.55
2018-09-30T12:34:59.378Z,100084.78
2018-09-30T12:37:28.463Z,100083.48
2018-09-30T12:39:57.559Z,100091.50
2018-09-30T12:42:26.794Z,100077.23
2018-09-30T12:44:55.886Z,100060.63
2018-09-30T12:47:25.190Z,100058.85
2018-09-30T12:49:54.327Z,100065.33
2018-09-30T12:52:23.427Z,100068.33
2018-09-30T12:54:52.451Z,100064.29
2018-09-30T12:57:21.542Z,100061.09
2018-09-30T12:59:50.645Z,100065.32
2018-09-30T13:02:19.708Z,100059.24
2018-09-30T13:04:48.789Z,100060.19
2018-09-30T13:07:17.856Z,100048.52
2018-09-30T13:09:46.907Z,100052.25
2018-09-30T13:12:17.174Z,100044.05
2018-09-30T13:14:46.241Z,100048.00
2018-09-30T13:17:15.326Z,100046.09
2018-09-30T13:19:44.446Z,100044.42
2018-09-30T13:22:13.522Z,100045.43
2018-09-30T13:24:42.617Z,100042.21
2018-09-30T13:27:11.698Z,100049.14
2018-09-30T13:29:40.715Z,100042.70
2018-09-30T13:32:09.786Z,100031.30
2018-09-30T13:34:38.788Z,100032.67
2018-09-30T13:37:07.782Z,100040.22
2018-09-30T13:39:36.786Z,100031.75
2018-09-30T13:42:05.862Z,100031.71
2018-09-30T13:44:34.887Z,100037.16
2018-09-30T13:47:03.954Z,100024.49
2018-09-30T13:49:33.009Z,100023.59
2018-09-30T13:52:02.044Z,100022.55
2018-09-30T13:54:31.055Z,100015.81
2018-09-30T13:57:00.328Z,100013.27
2018-09-30T13:59:29.571Z,99998.84
2018-09-30T14:01:58.671Z,99996.46
2018-09-30T14:04:27.727Z,99990.59
2018-09-30T14:06:56.734Z,99994.39
2018-09-30T14:09:25.715Z,99976.03
2018-09-30T14:11:54.736Z,99991.02
2018-09-30T14:14:23.690Z,99974.98
2018-09-30T14:16:52.731Z,99979.36
2018-09-30T14:19:21.786Z,99962.20
2018-09-30T14:21:50.797Z,99956.16
2018-09-30T14:24:19.808Z,99954.97
2018-09-30T14:26:48.977Z,99963.59
2018-09-30T14:29:18.042Z,99959.07
2018-09-30T14:31:47.106Z,99951.30
2018-09-30T14:34:16.240Z,99932.98
2018-09-30T14:36:45.318Z,99952.89
2018-09-30T14:39:15.383Z,99955.03
2018-09-30T14:41:44.362Z,99961.38
2018-09-30T14:44:13.411Z,99952.83
2018-09-30T14:46:42.495Z,99946.30
2018-09-30T14:49:11.480Z,99945.56
2018-09-30T14:51:40.638Z,99948.05
2018-09-30T14:54:09.802Z,99944.15
2018-09-30T14:56:38.716Z,99949.98
2018-09-30T14:59:07.761Z,99946.13
2018-09-30T15:01:36.818Z,99933.14
2018-09-30T15:04:06.479Z,99930.23
2018-09-30T15:06:35.588Z,99930.77
2018-09-30T15:09:07.396Z,99931.22
2018-09-30T15:11:36.446Z,99928.87
2018-09-30T15:14:05.538Z,99918.55
2018-09-30T15:16:34.688Z,99927.38
2018-09-30T15:19:04.132Z,99916.08
2018-09-30T15:21:33.167Z,99914.27
2018-09-30T15:24:02.405Z,99902.36
2018-09-30T15:26:31.414Z,99904.48
2018-09-30T15:29:00.411Z,99903.80
2018-09-30T15:31:29.447Z,99896.23
2018-09-30T15:33:58.546Z,99890.64
2018-09-30T15:36:27.634Z,99892.72
2018-09-30T15:38:56.701Z,99895.17
2018-09-30T15:41:25.779Z,99900.34
2018-09-30T15:43:55.949Z,99897.89
2018-09-30T15:46:25.095Z,99886.55
2018-09-30T15:48:54.121Z,99896.59
2018-09-30T15:51:23.155Z,99886.86
2018-09-30T15:53:52.278Z,99884.30
2018-09-30T15:56:21.396Z,99892.77
2018-09-30T15:58:50.510Z,99887.67
2018-09-30T16:01:19.644Z,99880.20
2018-09-30T16:03:48.677Z,99877.78
2018-09-30T16:06:17.671Z,99882.32
2018-09-30T16:08:46.672Z,99890.22
2018-09-30T16:11:15.622Z,99883.02
2018-09-30T16:13:44.833Z,99890.14
2018-09-30T16:16:13.935Z,99891.52
2018-09-30T16:18:42.934Z,99892.08
2018-09-30T16:21:11.975Z,99893.89
2018-09-30T16:23:40.876Z,99885.14
2018-09-30T16:26:10.972Z,99885.58
2018-09-30T16:28:40.045Z,99887.97
2018-09-30T16:31:09.323Z,99894.64
2018-09-30T16:33:38.331Z,99886.36
2018-09-30T16:36:07.406Z,99884.77
2018-09-30T16:38:36.444Z,99886.93
2018-09-30T16:41:05.377Z,99881.69
2018-09-30T16:43:34.414Z,99883.66
2018-09-30T16:46:03.509Z,99879.61
2018-09-30T16:48:32.495Z,99881.59
2018-09-30T16:51:01.624Z,99887.19
2018-09-30T16:53:30.776Z,99891.46
2018-09-30T16:55:59.941Z,99883.19
2018-09-30T16:58:28.987Z,99883.64
2018-09-30T17:00:58.022Z,99890.53
2018-09-30T17:03:27.091Z,99889.63
2018-09-30T17:05:56.194Z,99887.64
2018-09-30T17:08:25.199Z,99889.05
2018-09-30T17:10:54.351Z,99890.48
2018-09-30T17:13:23.402Z,99893.40
2018-09-30T17:15:52.527Z,99894.88
2018-09-30T17:18:21.583Z,99892.77
2018-09-30T17:20:51.023Z,99892.11
2018-09-30T17:23:21.131Z,99900.08
2018-09-30T17:25:50.249Z,99899.59
2018-09-30T17:28:19.266Z,99906.29
2018-09-30T17:30:48.559Z,99902.24
2018-09-30T17:33:17.698Z,99893.42
2018-09-30T17:35:46.746Z,99897.22
2018-09-30T17:38:15.872Z,99891.02
2018-09-30T17:40:44.886Z,99889.44
2018-09-30T17:43:13.926Z,99891.20
2018-09-30T17:45:43.877Z,99895.43
2018-09-30T17:48:12.974Z,99884.33
2018-09-30T17:50:42.177Z,99890.16
2018-09-30T17:53:11.288Z,99883.49
2018-09-30T17:55:40.373Z,99888.54
2018-09-30T17:58:09.465Z,99893.26
2018-09-30T18:00:38.689Z,99895.93
2018-09-30T18:03:07.655Z,99894.56
2018-09-30T18:05:36.733Z,99894.03
2018-09-30T18:08:05.830Z,99886.26
2018-09-30T18:10:34.930Z,99890.20
2018-09-30T18:13:04.096Z,99887.34
2018-09-30T18:15:33.237Z,99890.43
2018-09-30T18:18:02.302Z,99890.20
2018-09-30T18:20:31.219Z,99893.83
2018-09-30T18:23:00.203Z,99892.89
2018-09-30T18:25:29.311Z,99890.37
2018-09-30T18:27:58.406Z,99893.19
2018-09-30T18:30:27.428Z,99894.09
2018-09-30T18:32:56.630Z,99897.23
2018-09-30T18:35:25.686Z,99894.95
2018-09-30T18:37:54.738Z,99894.61
2018-09-30T18:40:23.781Z,99890.89
2018-09-30T18:42:52.982Z,99884.45
2018-09-30T18:45:22.046Z,99885.16
2018-09-30T18:47:51.084Z,99881.86
2018-09-30T18:50:20.068Z,99884.95
2018-09-30T18:52:49.104Z,99877.56
2018-09-30T18:55:18.249Z,99873.60
2018-09-30T18:57:47.358Z,99870.25
2018-09-30T19:00:16.378Z,99859.95
2018-09-30T19:02:45.451Z,99865.17
2018-09-30T19:05:14.655Z,99860.17
2018-09-30T19:07:43.864Z,99854.58
2018-09-30T19:10:12.916Z,99850.28
2018-09-30T19:12:42.073Z,99848.73
2018-09-30T19:15:11.199Z,99848.81
2018-09-30T19:17:40.131Z,99848.91
2018-09-30T19:20:09.245Z,99847.80
2018-09-30T19:22:38.303Z,99843.55
2018-09-30T19:25:07.405Z,99839.30
2018-09-30T19:27:36.496Z,99846.00
2018-09-30T19:30:05.711Z,99844.80
2018-09-30T19:32:34.765Z,99837.38
2018-09-30T19:35:03.803Z,99831.27
2018-09-30T19:37:32.994Z,99824.32
2018-09-30T19:40:02.070Z,99824.10
2018-09-30T19:42:31.074Z,99821.48
2018-09-30T19:45:00.143Z,99815.89
2018-09-30T19:47:29.509Z,99807.84
2018-09-30T19:49:58.682Z,99804.95
2018-09-30T19:52:27.762Z,99806.05
2018-09-30T19:54:56.780Z,99805.23
2018-09-30T19:57:25.811Z,99799.45
2018-09-30T19:59:58.915Z,99801.17
2018-09-30T20:02:27.932Z,99801.73
2018-09-30T20:04:57.001Z,99798.58
2018-09-30T20:07:26.054Z,99800.78
2018-09-30T20:09:55.144Z,99794.95
2018-09-30T20:12:24.313Z,99788.05
2018-09-30T20:14:53.333Z,99784.86
2018-09-30T20:17:22.311Z,99786.23
2018-09-30T20:19:51.465Z,99787.84
2018-09-30T20:22:20.477Z,99782.02
2018-09-30T20:24:49.493Z,99781.02
2018-09-30T20:27:18.437Z,99776.75
2018-09-30T20:29:47.472Z,99773.55
2018-09-30T20:32:16.518Z,99767.72
2018-09-30T20:34:45.470Z,99761.56
2018-09-30T20:37:14.625Z,99767.21
2018-09-30T20:39:43.591Z,99768.56
2018-09-30T20:42:12.586Z,99769.39
2018-09-30T20:44:41.573Z,99768.57
2018-09-30T20:47:10.597Z,99761.39
2018-09-30T20:49:39.595Z,99754.70
2018-09-30T20:52:08.596Z,99756.04
2018-09-30T20:54:37.647Z,99749.89
2018-09-30T20:57:06.689Z,99747.53
2018-09-30T20:59:35.768Z,99746.20
2018-09-30T21:02:04.758Z,99741.14
2018-09-30T21:04:33.776Z,99741.67
2018-09-30T21:07:02.968Z,99739.52
2018-09-30T21:09:32.099Z,99742.72
2018-09-30T21:12:01.108Z,99741.41
2018-09-30T21:14:30.115Z,99742.77
2018-09-30T21:16:59.364Z,99739.02
2018-09-30T21:19:28.460Z,99737.46
2018-09-30T21:21:57.615Z,99737.18
2018-09-30T21:24:26.590Z,99733.17
2018-09-30T21:26:55.644Z,99733.46
2018-09-30T21:29:24.688Z,99729.46
2018-09-30T21:31:53.674Z,99724.39
2018-09-30T21:34:22.675Z,99730.55
2018-09-30T21:36:51.665Z,99724.14
2018-09-30T21:39:20.665Z,99724.14
2018-09-30T21:41:49.703Z,99720.15
2018-09-30T21:44:19.002Z,99713.75
2018-09-30T21:46:48.100Z,99710.84
2018-09-30T21:49:17.144Z,99711.64
2018-09-30T21:51:46.083Z,99709.25
2018-09-30T21:54:15.327Z,99709.80
2018-09-30T21:56:44.341Z,99712.73
2018-09-30T21:59:13.399Z,99705.29
2018-09-30T22:01:42.494Z,99702.87
2018-09-30T22:04:11.510Z,99697.80
2018-09-30T22:06:42.107Z,99699.95
2018-09-30T22:09:11.203Z,99696.73
2018-09-30T22:11:40.276Z,99689.81
2018-09-30T22:14:09.255Z,99693.27
2018-09-30T22:16:38.250Z,99696.23
2018-09-30T22:19:07.256Z,99693.83
2018-09-30T22:21:36.274Z,99691.17
2018-09-30T22:24:05.374Z,99696.22
2018-09-30T22:26:34.448Z,99699.69
2018-09-30T22:29:03.411Z,99691.16
2018-09-30T22:31:32.426Z,99696.23
2018-09-30T22:34:01.427Z,99688.49
2018-09-30T22:36:30.490Z,99683.98
2018-09-30T22:38:59.517Z,99690.90
2018-09-30T22:41:28.877Z,99689.56
2018-09-30T22:44:02.471Z,99686.34
2018-09-30T22:46:31.538Z,99681.03
2018-09-30T22:49:00.652Z,99683.97
2018-09-30T22:51:29.712Z,99675.16
2018-09-30T22:53:58.722Z,99667.98
2018-09-30T22:56:27.771Z,99666.65
2018-09-30T22:58:56.798Z,99662.38
2018-09-30T23:01:25.776Z,99657.85
2018-09-30T23:03:54.747Z,99655.74
2018-09-30T23:06:23.747Z,99657.05
2018-09-30T23:08:52.757Z,99657.05
2018-09-30T23:11:21.744Z,99657.84
2018-09-30T23:13:50.753Z,99655.72
2018-09-30T23:16:19.738Z,99653.59
2018-09-30T23:18:48.794Z,99655.72
2018-09-30T23:21:17.847Z,99653.57
2018-09-30T23:23:46.860Z,99657.84
2018-09-30T23:26:16.035Z,99650.66
2018-09-30T23:28:45.060Z,99650.36
2018-09-30T23:31:14.078Z,99650.61
2018-09-30T23:33:43.236Z,99647.69
2018-09-30T23:36:12.265Z,99652.19
2018-09-30T23:38:41.280Z,99662.03
2018-09-30T23:41:10.274Z,99656.70
2018-09-30T23:43:39.542Z,99656.72
2018-09-30T23:46:08.861Z,99648.98
2018-09-30T23:48:37.903Z,99662.58
2018-09-30T23:51:06.925Z,99656.97
2018-09-30T23:53:38.012Z,99665.48
2018-09-30T23:56:07.808Z,99661.73
2018-09-30T23:58:36.828Z,99660.95
